RYR2AD EYKA-EGSS
Flight info
| Callsign | RYR2AD |
|---|---|
| Flight time | 2h 31m |
| Altitude | 38000 |
| Route | GOJOM DCT ADAXA DCT NINTA DCT KOLJA DCT ALASA DCT LONAM DCT BINBO DCT AKOKO N866 KUBAX Z150 MEGEL |
| Aircraft | B738/M-SDE3FGILRWY/SB1 |
Departure
| Time | 2026-04-24 20:02 |
|---|---|
| Airport | Kaunas International Airport (EYKA) |
Arrival
| Time | 2026-04-24 22:33 |
|---|---|
| Airport | London Stansted Airport (EGSS) |
| Time | Latitude | Longitude | Altitude | Speed | Heading |
|---|---|---|---|---|---|
| 2026-04-24 19:30 | 54.96627 | 24.07400 | 267 ft | 0 kts | 105° |
| 2026-04-24 19:54 | 54.96622 | 24.07434 | 267 ft | 6 kts | 105° |
| 2026-04-24 19:55 | 54.96602 | 24.07474 | 267 ft | 7 kts | 162° |
| 2026-04-24 19:55 | 54.96534 | 24.07486 | 267 ft | 7 kts | 176° |
| 2026-04-24 19:55 | 54.96505 | 24.07542 | 267 ft | 7 kts | 96° |
| 2026-04-24 19:55 | 54.96508 | 24.07628 | 267 ft | 7 kts | 84° |
| 2026-04-24 19:56 | 54.96512 | 24.07727 | 267 ft | 10 kts | 86° |
| 2026-04-24 19:56 | 54.96519 | 24.07862 | 267 ft | 13 kts | 85° |
| 2026-04-24 19:56 | 54.96533 | 24.08038 | 267 ft | 16 kts | 75° |
| 2026-04-24 19:56 | 54.96566 | 24.08241 | 267 ft | 19 kts | 82° |
| 2026-04-24 19:57 | 54.96577 | 24.08482 | 267 ft | 21 kts | 85° |
| 2026-04-24 19:57 | 54.96589 | 24.08730 | 267 ft | 20 kts | 85° |
| 2026-04-24 19:57 | 54.96601 | 24.08969 | 267 ft | 20 kts | 85° |
| 2026-04-24 19:57 | 54.96611 | 24.09201 | 267 ft | 19 kts | 85° |
| 2026-04-24 19:58 | 54.96622 | 24.09425 | 267 ft | 18 kts | 85° |
| 2026-04-24 19:58 | 54.96618 | 24.09618 | 267 ft | 14 kts | 126° |
| 2026-04-24 19:58 | 54.96539 | 24.09659 | 267 ft | 11 kts | 176° |
| 2026-04-24 19:58 | 54.96466 | 24.09678 | 267 ft | 11 kts | 147° |
| 2026-04-24 19:59 | 54.96451 | 24.09797 | 267 ft | 11 kts | 85° |
| 2026-04-24 19:59 | 54.96458 | 24.09945 | 268 ft | 15 kts | 84° |
| 2026-04-24 19:59 | 54.96469 | 24.10158 | 269 ft | 20 kts | 85° |
| 2026-04-24 19:59 | 54.96484 | 24.10443 | 268 ft | 26 kts | 85° |
| 2026-04-24 20:00 | 54.96499 | 24.10717 | 267 ft | 16 kts | 70° |
| 2026-04-24 20:00 | 54.96514 | 24.10816 | 267 ft | 1 kts | 138° |
| 2026-04-24 20:00 | 54.96508 | 24.10806 | 267 ft | 2 kts | 233° |
| 2026-04-24 20:00 | 54.96499 | 24.10761 | 267 ft | 6 kts | 257° |
| 2026-04-24 20:01 | 54.96494 | 24.10679 | 267 ft | 8 kts | 265° |
| 2026-04-24 20:01 | 54.96489 | 24.10565 | 269 ft | 13 kts | 265° |
| 2026-04-24 20:01 | 54.96471 | 24.10192 | 269 ft | 63 kts | 265° |
| 2026-04-24 20:01 | 54.96412 | 24.09017 | 266 ft | 129 kts | 265° |
| 2026-04-24 20:02 | 54.96350 | 24.07838 | 273 ft | 165 kts | 265° |
| 2026-04-24 20:02 | 54.96205 | 24.05098 | 1138 ft | 172 kts | 266° |
| 2026-04-24 20:02 | 54.96114 | 24.02995 | 1868 ft | 180 kts | 267° |
| 2026-04-24 20:02 | 54.96016 | 24.00685 | 2325 ft | 204 kts | 267° |
| 2026-04-24 20:03 | 54.95893 | 23.98080 | 2625 ft | 225 kts | 267° |
| 2026-04-24 20:03 | 54.95751 | 23.95319 | 3251 ft | 231 kts | 268° |
| 2026-04-24 20:03 | 54.95601 | 23.92508 | 4099 ft | 233 kts | 267° |
| 2026-04-24 20:03 | 54.95460 | 23.89716 | 5054 ft | 231 kts | 272° |
| 2026-04-24 20:04 | 54.95735 | 23.86975 | 5665 ft | 242 kts | 289° |
| 2026-04-24 20:04 | 54.96259 | 23.84113 | 6339 ft | 252 kts | 289° |
| 2026-04-24 20:04 | 54.96801 | 23.81162 | 7158 ft | 257 kts | 289° |
| 2026-04-24 20:04 | 54.97346 | 23.78174 | 7995 ft | 261 kts | 289° |
| 2026-04-24 20:05 | 54.97893 | 23.75149 | 8841 ft | 263 kts | 289° |
| 2026-04-24 20:05 | 54.98436 | 23.72114 | 9604 ft | 268 kts | 289° |
| 2026-04-24 20:05 | 54.98993 | 23.68984 | 10308 ft | 277 kts | 289° |
| 2026-04-24 20:05 | 54.99591 | 23.65618 | 10513 ft | 303 kts | 290° |
| 2026-04-24 20:06 | 55.00233 | 23.61989 | 10832 ft | 321 kts | 289° |
| 2026-04-24 20:06 | 55.00891 | 23.58222 | 11497 ft | 327 kts | 290° |
| 2026-04-24 20:06 | 55.01556 | 23.54408 | 12323 ft | 328 kts | 290° |
| 2026-04-24 20:06 | 55.02218 | 23.50591 | 13128 ft | 330 kts | 290° |
| 2026-04-24 20:07 | 55.02659 | 23.48045 | 13619 ft | 332 kts | 290° |
| 2026-04-24 20:07 | 55.03560 | 23.42840 | 14578 ft | 337 kts | 290° |
| 2026-04-24 20:07 | 55.04239 | 23.38908 | 15288 ft | 339 kts | 290° |
| 2026-04-24 20:07 | 55.04922 | 23.34943 | 15986 ft | 342 kts | 290° |
| 2026-04-24 20:08 | 55.05601 | 23.30996 | 16676 ft | 344 kts | 290° |
| 2026-04-24 20:08 | 55.06293 | 23.26963 | 17327 ft | 347 kts | 289° |
| 2026-04-24 20:08 | 55.06989 | 23.22900 | 17956 ft | 351 kts | 289° |
| 2026-04-24 20:08 | 55.07452 | 23.20195 | 18379 ft | 352 kts | 289° |
| 2026-04-24 20:09 | 55.08153 | 23.16081 | 19004 ft | 355 kts | 289° |
| 2026-04-24 20:09 | 55.08860 | 23.11924 | 19571 ft | 359 kts | 289° |
| 2026-04-24 20:09 | 55.09577 | 23.07709 | 20090 ft | 364 kts | 289° |
| 2026-04-24 20:09 | 55.10299 | 23.03449 | 20666 ft | 367 kts | 289° |
| 2026-04-24 20:10 | 55.11026 | 22.99163 | 21211 ft | 369 kts | 290° |
| 2026-04-24 20:10 | 55.12004 | 22.95010 | 21694 ft | 370 kts | 298° |
| 2026-04-24 20:10 | 55.13227 | 22.91037 | 22202 ft | 373 kts | 301° |
| 2026-04-24 20:10 | 55.14514 | 22.87076 | 22694 ft | 376 kts | 301° |
| 2026-04-24 20:11 | 55.15819 | 22.83094 | 23163 ft | 379 kts | 301° |
| 2026-04-24 20:11 | 55.17128 | 22.79068 | 23629 ft | 382 kts | 301° |
| 2026-04-24 20:11 | 55.18420 | 22.75047 | 24085 ft | 384 kts | 300° |
| 2026-04-24 20:11 | 55.19730 | 22.70929 | 24513 ft | 387 kts | 300° |
| 2026-04-24 20:12 | 55.21040 | 22.66779 | 24948 ft | 390 kts | 300° |
| 2026-04-24 20:12 | 55.22349 | 22.62599 | 25380 ft | 392 kts | 300° |
| 2026-04-24 20:12 | 55.23662 | 22.58394 | 25785 ft | 395 kts | 300° |
| 2026-04-24 20:12 | 55.24982 | 22.54154 | 26191 ft | 397 kts | 300° |
| 2026-04-24 20:13 | 55.26288 | 22.49943 | 26559 ft | 399 kts | 299° |
| 2026-04-24 20:13 | 55.27628 | 22.45616 | 26935 ft | 401 kts | 299° |
| 2026-04-24 20:13 | 55.28965 | 22.41291 | 27290 ft | 404 kts | 299° |
| 2026-04-24 20:13 | 55.30309 | 22.36935 | 27655 ft | 406 kts | 299° |
| 2026-04-24 20:14 | 55.31638 | 22.32620 | 27981 ft | 408 kts | 299° |
| 2026-04-24 20:14 | 55.32989 | 22.28224 | 28315 ft | 410 kts | 299° |
| 2026-04-24 20:14 | 55.34347 | 22.23803 | 28640 ft | 412 kts | 299° |
| 2026-04-24 20:14 | 55.35708 | 22.19359 | 28959 ft | 414 kts | 299° |
| 2026-04-24 20:15 | 55.37075 | 22.14889 | 29255 ft | 416 kts | 298° |
| 2026-04-24 20:15 | 55.38445 | 22.10403 | 29555 ft | 417 kts | 298° |
| 2026-04-24 20:15 | 55.39819 | 22.05891 | 29881 ft | 418 kts | 298° |
| 2026-04-24 20:15 | 55.41188 | 22.01391 | 30289 ft | 416 kts | 298° |
| 2026-04-24 20:16 | 55.42549 | 21.96906 | 30714 ft | 414 kts | 298° |
| 2026-04-24 20:16 | 55.43884 | 21.92497 | 31148 ft | 412 kts | 298° |
| 2026-04-24 20:16 | 55.45227 | 21.88058 | 31549 ft | 410 kts | 298° |
| 2026-04-24 20:16 | 55.46570 | 21.83610 | 31872 ft | 411 kts | 298° |
| 2026-04-24 20:17 | 55.47910 | 21.79164 | 32174 ft | 411 kts | 298° |
| 2026-04-24 20:17 | 55.50586 | 21.70249 | 32810 ft | 410 kts | 298° |
| 2026-04-24 20:17 | 55.51918 | 21.65803 | 33151 ft | 409 kts | 298° |
| 2026-04-24 20:18 | 55.52796 | 21.62866 | 33352 ft | 409 kts | 298° |
| 2026-04-24 20:18 | 55.54574 | 21.56911 | 33735 ft | 409 kts | 297° |
| 2026-04-24 20:18 | 55.55896 | 21.52471 | 34032 ft | 408 kts | 297° |
| 2026-04-24 20:18 | 55.57199 | 21.48090 | 34345 ft | 407 kts | 297° |
| 2026-04-24 20:19 | 55.58512 | 21.43664 | 34650 ft | 406 kts | 298° |
| 2026-04-24 20:19 | 55.59824 | 21.39234 | 34832 ft | 408 kts | 298° |
| 2026-04-24 20:19 | 55.61144 | 21.34769 | 35041 ft | 409 kts | 298° |
| 2026-04-24 20:19 | 55.62453 | 21.30335 | 35363 ft | 407 kts | 298° |
| 2026-04-24 20:20 | 55.63762 | 21.25888 | 35594 ft | 407 kts | 298° |
| 2026-04-24 20:20 | 55.65073 | 21.21429 | 35788 ft | 408 kts | 298° |
| 2026-04-24 20:20 | 55.66383 | 21.16963 | 36012 ft | 408 kts | 298° |
| 2026-04-24 20:20 | 55.67692 | 21.12493 | 36247 ft | 408 kts | 298° |
| 2026-04-24 20:21 | 55.69002 | 21.08013 | 36422 ft | 409 kts | 298° |
| 2026-04-24 20:21 | 55.70310 | 21.03526 | 36636 ft | 409 kts | 298° |
| 2026-04-24 20:21 | 55.71593 | 20.99120 | 36911 ft | 406 kts | 298° |
| 2026-04-24 20:21 | 55.72882 | 20.94686 | 37236 ft | 403 kts | 298° |
| 2026-04-24 20:22 | 55.74167 | 20.90254 | 37490 ft | 402 kts | 298° |
| 2026-04-24 20:22 | 55.75444 | 20.85843 | 37666 ft | 401 kts | 298° |
| 2026-04-24 20:22 | 55.78009 | 20.76957 | 37862 ft | 405 kts | 297° |
| 2026-04-24 20:23 | 55.80582 | 20.68003 | 37910 ft | 408 kts | 297° |
| 2026-04-24 20:23 | 55.83133 | 20.59102 | 37910 ft | 405 kts | 297° |
| 2026-04-24 20:24 | 55.85674 | 20.50199 | 37912 ft | 402 kts | 297° |
| 2026-04-24 20:24 | 55.88195 | 20.41326 | 37915 ft | 400 kts | 297° |
| 2026-04-24 20:25 | 55.90699 | 20.32485 | 37917 ft | 399 kts | 297° |
| 2026-04-24 20:25 | 55.93182 | 20.23691 | 37922 ft | 399 kts | 297° |
| 2026-04-24 20:26 | 55.95679 | 20.14809 | 37921 ft | 400 kts | 297° |
| 2026-04-24 20:26 | 55.98156 | 20.05951 | 37921 ft | 402 kts | 297° |
| 2026-04-24 20:27 | 56.00660 | 19.96972 | 37923 ft | 404 kts | 297° |
| 2026-04-24 20:27 | 56.03172 | 19.87928 | 37920 ft | 406 kts | 297° |
| 2026-04-24 20:28 | 56.05672 | 19.78895 | 37918 ft | 408 kts | 296° |
| 2026-04-24 20:28 | 56.08188 | 19.69763 | 37917 ft | 409 kts | 296° |
| 2026-04-24 20:29 | 56.10708 | 19.60585 | 37915 ft | 410 kts | 296° |
| 2026-04-24 20:29 | 56.13208 | 19.51439 | 37916 ft | 410 kts | 296° |
| 2026-04-24 20:30 | 56.15719 | 19.42222 | 37915 ft | 410 kts | 296° |
| 2026-04-24 20:30 | 56.18210 | 19.33032 | 37916 ft | 409 kts | 296° |
| 2026-04-24 20:31 | 56.20696 | 19.23832 | 37914 ft | 408 kts | 296° |
| 2026-04-24 20:31 | 56.23167 | 19.14655 | 37918 ft | 407 kts | 296° |
| 2026-04-24 20:32 | 56.25603 | 19.05557 | 37918 ft | 405 kts | 296° |
| 2026-04-24 20:32 | 56.28025 | 18.96413 | 37913 ft | 404 kts | 292° |
| 2026-04-24 20:33 | 56.28817 | 18.91564 | 37918 ft | 404 kts | 281° |
| 2026-04-24 20:33 | 56.29112 | 18.86526 | 37918 ft | 405 kts | 274° |
| 2026-04-24 20:33 | 56.28954 | 18.81450 | 37910 ft | 408 kts | 263° |
| 2026-04-24 20:33 | 56.28411 | 18.76434 | 37927 ft | 409 kts | 262° |
| 2026-04-24 20:34 | 56.27228 | 18.66422 | 37918 ft | 408 kts | 262° |
| 2026-04-24 20:34 | 56.26080 | 18.56499 | 37916 ft | 407 kts | 262° |
| 2026-04-24 20:35 | 56.24944 | 18.46505 | 37918 ft | 407 kts | 262° |
| 2026-04-24 20:35 | 56.23810 | 18.36529 | 37916 ft | 406 kts | 262° |
| 2026-04-24 20:36 | 56.22649 | 18.26651 | 37913 ft | 406 kts | 260° |
| 2026-04-24 20:36 | 56.21203 | 18.16788 | 37909 ft | 407 kts | 258° |
| 2026-04-24 20:37 | 56.19684 | 18.06980 | 37909 ft | 407 kts | 258° |
| 2026-04-24 20:37 | 56.18187 | 17.97244 | 37908 ft | 406 kts | 258° |
| 2026-04-24 20:38 | 56.16690 | 17.87451 | 37906 ft | 406 kts | 258° |
| 2026-04-24 20:38 | 56.15201 | 17.77723 | 37907 ft | 406 kts | 258° |
| 2026-04-24 20:39 | 56.13698 | 17.67959 | 37906 ft | 405 kts | 258° |
| 2026-04-24 20:39 | 56.12190 | 17.58227 | 37904 ft | 405 kts | 258° |
| 2026-04-24 20:40 | 56.10672 | 17.48477 | 37911 ft | 406 kts | 258° |
| 2026-04-24 20:40 | 56.09145 | 17.38732 | 37909 ft | 407 kts | 258° |
| 2026-04-24 20:41 | 56.07607 | 17.28970 | 37905 ft | 408 kts | 258° |
| 2026-04-24 20:41 | 56.06063 | 17.19226 | 37899 ft | 409 kts | 258° |
| 2026-04-24 20:42 | 56.04499 | 17.09417 | 37899 ft | 410 kts | 258° |
| 2026-04-24 20:42 | 56.02921 | 16.99586 | 37900 ft | 411 kts | 258° |
| 2026-04-24 20:43 | 56.01339 | 16.89757 | 37899 ft | 411 kts | 258° |
| 2026-04-24 20:43 | 55.99756 | 16.79972 | 37898 ft | 412 kts | 258° |
| 2026-04-24 20:44 | 55.98315 | 16.70093 | 37900 ft | 411 kts | 260° |
| 2026-04-24 20:44 | 55.96933 | 16.60201 | 37890 ft | 409 kts | 260° |
| 2026-04-24 20:45 | 55.95539 | 16.50354 | 37895 ft | 408 kts | 259° |
| 2026-04-24 20:45 | 55.94136 | 16.40595 | 37895 ft | 407 kts | 259° |
| 2026-04-24 20:46 | 55.92717 | 16.30827 | 37897 ft | 406 kts | 259° |
| 2026-04-24 20:46 | 55.91292 | 16.21089 | 37901 ft | 405 kts | 259° |
| 2026-04-24 20:47 | 55.89860 | 16.11376 | 37897 ft | 404 kts | 259° |
| 2026-04-24 20:47 | 55.88436 | 16.01757 | 37899 ft | 404 kts | 259° |
| 2026-04-24 20:48 | 55.86988 | 15.92036 | 37900 ft | 405 kts | 259° |
| 2026-04-24 20:48 | 55.85540 | 15.82378 | 37900 ft | 406 kts | 259° |
| 2026-04-24 20:49 | 55.84074 | 15.72655 | 37899 ft | 407 kts | 259° |
| 2026-04-24 20:49 | 55.82593 | 15.62910 | 37898 ft | 407 kts | 259° |
| 2026-04-24 20:50 | 55.81107 | 15.53172 | 37899 ft | 408 kts | 259° |
| 2026-04-24 20:50 | 55.79622 | 15.43493 | 37901 ft | 408 kts | 259° |
| 2026-04-24 20:51 | 55.78118 | 15.33754 | 37898 ft | 408 kts | 259° |
| 2026-04-24 20:51 | 55.76608 | 15.24030 | 37900 ft | 408 kts | 259° |
| 2026-04-24 20:52 | 55.75089 | 15.14324 | 37913 ft | 406 kts | 259° |
| 2026-04-24 20:52 | 55.73580 | 15.04721 | 37916 ft | 405 kts | 259° |
| 2026-04-24 20:53 | 55.72055 | 14.95072 | 37914 ft | 405 kts | 259° |
| 2026-04-24 20:53 | 55.70788 | 14.87101 | 37921 ft | 404 kts | 259° |
| 2026-04-24 20:54 | 55.69258 | 14.77523 | 37925 ft | 403 kts | 259° |
| 2026-04-24 20:54 | 55.67723 | 14.67966 | 37928 ft | 402 kts | 259° |
| 2026-04-24 20:55 | 55.66194 | 14.58501 | 37927 ft | 402 kts | 258° |
| 2026-04-24 20:55 | 55.64649 | 14.48988 | 37933 ft | 401 kts | 258° |
| 2026-04-24 20:56 | 55.63113 | 14.39546 | 37936 ft | 401 kts | 258° |
| 2026-04-24 20:56 | 55.61554 | 14.30058 | 37938 ft | 401 kts | 258° |
| 2026-04-24 20:57 | 55.59989 | 14.20597 | 37938 ft | 402 kts | 258° |
| 2026-04-24 20:57 | 55.58404 | 14.11065 | 37940 ft | 403 kts | 258° |
| 2026-04-24 20:58 | 55.56824 | 14.01605 | 37935 ft | 404 kts | 258° |
| 2026-04-24 20:58 | 55.55224 | 13.92079 | 37934 ft | 404 kts | 258° |
| 2026-04-24 20:59 | 55.53616 | 13.82545 | 37936 ft | 404 kts | 258° |
| 2026-04-24 20:59 | 55.52003 | 13.73023 | 37937 ft | 405 kts | 258° |
| 2026-04-24 21:00 | 55.50391 | 13.63583 | 37939 ft | 404 kts | 258° |
| 2026-04-24 21:00 | 55.48762 | 13.54087 | 37943 ft | 403 kts | 258° |
| 2026-04-24 21:01 | 55.47127 | 13.44604 | 37956 ft | 403 kts | 258° |
| 2026-04-24 21:01 | 55.45498 | 13.35206 | 37943 ft | 403 kts | 257° |
| 2026-04-24 21:02 | 55.43853 | 13.25771 | 37938 ft | 403 kts | 257° |
| 2026-04-24 21:02 | 55.42201 | 13.16339 | 37942 ft | 403 kts | 257° |
| 2026-04-24 21:03 | 55.40540 | 13.06917 | 37942 ft | 402 kts | 257° |
| 2026-04-24 21:03 | 55.38874 | 12.97509 | 37949 ft | 402 kts | 257° |
| 2026-04-24 21:04 | 55.37207 | 12.88139 | 37954 ft | 401 kts | 257° |
| 2026-04-24 21:04 | 55.35546 | 12.78844 | 37951 ft | 401 kts | 257° |
| 2026-04-24 21:05 | 55.33867 | 12.69494 | 37965 ft | 400 kts | 257° |
| 2026-04-24 21:05 | 55.32184 | 12.60175 | 37968 ft | 400 kts | 257° |
| 2026-04-24 21:06 | 55.30506 | 12.50931 | 37979 ft | 399 kts | 257° |
| 2026-04-24 21:06 | 55.28806 | 12.41620 | 37979 ft | 400 kts | 257° |
| 2026-04-24 21:07 | 55.27103 | 12.32319 | 37979 ft | 400 kts | 257° |
| 2026-04-24 21:07 | 55.25390 | 12.23035 | 37975 ft | 401 kts | 257° |
| 2026-04-24 21:08 | 55.23666 | 12.13729 | 37972 ft | 401 kts | 256° |
| 2026-04-24 21:08 | 55.21943 | 12.04473 | 37979 ft | 402 kts | 256° |
| 2026-04-24 21:09 | 55.20201 | 11.95162 | 37981 ft | 402 kts | 256° |
| 2026-04-24 21:09 | 55.18451 | 11.85842 | 37983 ft | 403 kts | 256° |
| 2026-04-24 21:10 | 55.16701 | 11.76570 | 37995 ft | 403 kts | 256° |
| 2026-04-24 21:10 | 55.14927 | 11.67236 | 37989 ft | 404 kts | 256° |
| 2026-04-24 21:11 | 55.13147 | 11.57918 | 38000 ft | 404 kts | 256° |
| 2026-04-24 21:11 | 55.11360 | 11.48598 | 37999 ft | 403 kts | 256° |
| 2026-04-24 21:12 | 55.09580 | 11.39359 | 38005 ft | 403 kts | 255° |
| 2026-04-24 21:12 | 55.07784 | 11.30082 | 38017 ft | 402 kts | 255° |
| 2026-04-24 21:13 | 55.05987 | 11.20839 | 38016 ft | 402 kts | 255° |
| 2026-04-24 21:13 | 55.04178 | 11.11587 | 38028 ft | 402 kts | 255° |
| 2026-04-24 21:14 | 55.02379 | 11.02422 | 38028 ft | 402 kts | 254° |
| 2026-04-24 21:14 | 55.00557 | 10.93188 | 38030 ft | 403 kts | 254° |
| 2026-04-24 21:15 | 54.98727 | 10.83955 | 38038 ft | 403 kts | 254° |
| 2026-04-24 21:15 | 54.96898 | 10.74775 | 38039 ft | 403 kts | 254° |
| 2026-04-24 21:16 | 54.95050 | 10.65543 | 38039 ft | 404 kts | 254° |
| 2026-04-24 21:16 | 54.93205 | 10.56360 | 38049 ft | 404 kts | 253° |
| 2026-04-24 21:17 | 54.91342 | 10.47139 | 38055 ft | 404 kts | 253° |
| 2026-04-24 21:17 | 54.89468 | 10.37903 | 38057 ft | 404 kts | 253° |
| 2026-04-24 21:18 | 54.87590 | 10.28690 | 38072 ft | 405 kts | 253° |
| 2026-04-24 21:18 | 54.85701 | 10.19467 | 38079 ft | 405 kts | 253° |
| 2026-04-24 21:19 | 54.83806 | 10.10250 | 38081 ft | 406 kts | 253° |
| 2026-04-24 21:19 | 54.81914 | 10.01091 | 38087 ft | 405 kts | 253° |
| 2026-04-24 21:20 | 54.79566 | 9.87059 | 38082 ft | 403 kts | 259° |
| 2026-04-24 21:21 | 54.78343 | 9.77549 | 38083 ft | 403 kts | 259° |
| 2026-04-24 21:21 | 54.77101 | 9.68058 | 38091 ft | 403 kts | 259° |
| 2026-04-24 21:22 | 54.75841 | 9.58659 | 38101 ft | 403 kts | 259° |
| 2026-04-24 21:22 | 54.74554 | 9.49208 | 38101 ft | 402 kts | 259° |
| 2026-04-24 21:23 | 54.73259 | 9.39784 | 38097 ft | 402 kts | 259° |
| 2026-04-24 21:23 | 54.71961 | 9.30403 | 38098 ft | 402 kts | 259° |
| 2026-04-24 21:24 | 54.70650 | 9.20987 | 38103 ft | 402 kts | 258° |
| 2026-04-24 21:24 | 54.69340 | 9.11640 | 38113 ft | 402 kts | 258° |
| 2026-04-24 21:25 | 54.68015 | 9.02235 | 38107 ft | 402 kts | 258° |
| 2026-04-24 21:25 | 54.66683 | 8.92831 | 38115 ft | 402 kts | 258° |
| 2026-04-24 21:26 | 54.65341 | 8.83433 | 38112 ft | 403 kts | 258° |
| 2026-04-24 21:26 | 54.63998 | 8.74069 | 38122 ft | 404 kts | 258° |
| 2026-04-24 21:27 | 54.62636 | 8.64640 | 38118 ft | 405 kts | 258° |
| 2026-04-24 21:27 | 54.61263 | 8.55190 | 38130 ft | 405 kts | 258° |
| 2026-04-24 21:28 | 54.59880 | 8.45730 | 38137 ft | 406 kts | 258° |
| 2026-04-24 21:28 | 54.58500 | 8.36339 | 38140 ft | 406 kts | 258° |
| 2026-04-24 21:29 | 54.57102 | 8.26893 | 38133 ft | 407 kts | 257° |
| 2026-04-24 21:29 | 54.55693 | 8.17423 | 38143 ft | 407 kts | 257° |
| 2026-04-24 21:30 | 54.54280 | 8.07985 | 38142 ft | 407 kts | 257° |
| 2026-04-24 21:30 | 54.52870 | 7.98619 | 38142 ft | 406 kts | 257° |
| 2026-04-24 21:31 | 54.51441 | 7.89185 | 38149 ft | 406 kts | 257° |
| 2026-04-24 21:31 | 54.50009 | 7.79781 | 38151 ft | 406 kts | 257° |
| 2026-04-24 21:32 | 54.48570 | 7.70384 | 38154 ft | 406 kts | 257° |
| 2026-04-24 21:32 | 54.47121 | 7.60989 | 38163 ft | 406 kts | 257° |
| 2026-04-24 21:33 | 54.45670 | 7.51623 | 38167 ft | 405 kts | 257° |
| 2026-04-24 21:33 | 54.44223 | 7.42333 | 38172 ft | 405 kts | 257° |
| 2026-04-24 21:34 | 54.42756 | 7.32978 | 38175 ft | 405 kts | 257° |
| 2026-04-24 21:34 | 54.41285 | 7.23645 | 38188 ft | 405 kts | 257° |
| 2026-04-24 21:35 | 54.39805 | 7.14306 | 38184 ft | 405 kts | 257° |
| 2026-04-24 21:35 | 54.38324 | 7.05013 | 38189 ft | 406 kts | 257° |
| 2026-04-24 21:36 | 54.36824 | 6.95657 | 38192 ft | 407 kts | 256° |
| 2026-04-24 21:36 | 54.35313 | 6.86279 | 38199 ft | 408 kts | 256° |
| 2026-04-24 21:37 | 54.33785 | 6.76870 | 38204 ft | 410 kts | 256° |
| 2026-04-24 21:37 | 54.32259 | 6.67501 | 38204 ft | 411 kts | 256° |
| 2026-04-24 21:38 | 54.30714 | 6.58062 | 38209 ft | 412 kts | 256° |
| 2026-04-24 21:38 | 54.29157 | 6.48604 | 38213 ft | 413 kts | 256° |
| 2026-04-24 21:39 | 54.27589 | 6.39128 | 38217 ft | 414 kts | 256° |
| 2026-04-24 21:39 | 54.26009 | 6.29648 | 38225 ft | 414 kts | 256° |
| 2026-04-24 21:40 | 54.24429 | 6.20220 | 38222 ft | 414 kts | 255° |
| 2026-04-24 21:40 | 54.22834 | 6.10761 | 38225 ft | 414 kts | 255° |
| 2026-04-24 21:41 | 54.21502 | 6.02888 | 38230 ft | 414 kts | 255° |
| 2026-04-24 21:41 | 54.19895 | 5.93435 | 38229 ft | 414 kts | 255° |
| 2026-04-24 21:42 | 54.18291 | 5.84050 | 38243 ft | 413 kts | 255° |
| 2026-04-24 21:42 | 54.16668 | 5.74612 | 38243 ft | 414 kts | 255° |
| 2026-04-24 21:43 | 54.15039 | 5.65181 | 38238 ft | 413 kts | 255° |
| 2026-04-24 21:43 | 54.13412 | 5.55810 | 38231 ft | 413 kts | 255° |
| 2026-04-24 21:44 | 54.11772 | 5.46419 | 38250 ft | 413 kts | 255° |
| 2026-04-24 21:44 | 54.10121 | 5.37030 | 38247 ft | 413 kts | 255° |
| 2026-04-24 21:45 | 54.08466 | 5.27649 | 38249 ft | 413 kts | 255° |
| 2026-04-24 21:45 | 54.06815 | 5.18337 | 38249 ft | 413 kts | 255° |
| 2026-04-24 21:46 | 54.05146 | 5.08973 | 38250 ft | 413 kts | 255° |
| 2026-04-24 21:46 | 54.03466 | 4.99601 | 38248 ft | 413 kts | 255° |
| 2026-04-24 21:47 | 54.01789 | 4.90296 | 38260 ft | 413 kts | 255° |
| 2026-04-24 21:47 | 54.00093 | 4.80929 | 38257 ft | 414 kts | 255° |
| 2026-04-24 21:48 | 53.98389 | 4.71559 | 38267 ft | 415 kts | 254° |
| 2026-04-24 21:48 | 53.96675 | 4.62190 | 38265 ft | 415 kts | 254° |
| 2026-04-24 21:49 | 53.94952 | 4.52816 | 38269 ft | 416 kts | 254° |
| 2026-04-24 21:49 | 53.93230 | 4.43497 | 38266 ft | 417 kts | 254° |
| 2026-04-24 21:50 | 53.91486 | 4.34107 | 38263 ft | 417 kts | 254° |
| 2026-04-24 21:50 | 53.89730 | 4.24695 | 38271 ft | 418 kts | 254° |
| 2026-04-24 21:51 | 53.87969 | 4.15304 | 38265 ft | 418 kts | 253° |
| 2026-04-24 21:51 | 53.86197 | 4.05893 | 38271 ft | 419 kts | 253° |
| 2026-04-24 21:52 | 53.84111 | 3.96733 | 38269 ft | 421 kts | 240° |
| 2026-04-24 21:52 | 53.80388 | 3.89063 | 38272 ft | 426 kts | 222° |
| 2026-04-24 21:53 | 53.75783 | 3.82726 | 38274 ft | 427 kts | 221° |
| 2026-04-24 21:53 | 53.71163 | 3.76464 | 38280 ft | 428 kts | 221° |
| 2026-04-24 21:54 | 53.66538 | 3.70127 | 38272 ft | 428 kts | 221° |
| 2026-04-24 21:54 | 53.61921 | 3.63775 | 38277 ft | 428 kts | 221° |
| 2026-04-24 21:55 | 53.57328 | 3.57464 | 38273 ft | 427 kts | 221° |
| 2026-04-24 21:55 | 53.52712 | 3.51145 | 38274 ft | 427 kts | 221° |
| 2026-04-24 21:56 | 53.48101 | 3.44847 | 38278 ft | 426 kts | 222° |
| 2026-04-24 21:56 | 53.43495 | 3.38576 | 38276 ft | 425 kts | 221° |
| 2026-04-24 21:57 | 53.38762 | 3.32711 | 38265 ft | 428 kts | 211° |
| 2026-04-24 21:57 | 53.33428 | 3.28270 | 38270 ft | 427 kts | 209° |
| 2026-04-24 21:58 | 53.28094 | 3.23838 | 38271 ft | 426 kts | 210° |
| 2026-04-24 21:58 | 53.22783 | 3.19347 | 37783 ft | 431 kts | 210° |
| 2026-04-24 21:58 | 53.20162 | 3.17121 | 37490 ft | 425 kts | 210° |
| 2026-04-24 21:59 | 53.17538 | 3.14895 | 37073 ft | 421 kts | 210° |
| 2026-04-24 21:59 | 53.14934 | 3.12694 | 36706 ft | 417 kts | 210° |
| 2026-04-24 21:59 | 53.12357 | 3.10518 | 36329 ft | 413 kts | 210° |
| 2026-04-24 21:59 | 53.09802 | 3.08368 | 35946 ft | 410 kts | 210° |
| 2026-04-24 22:00 | 53.07262 | 3.06238 | 35552 ft | 407 kts | 210° |
| 2026-04-24 22:00 | 53.04735 | 3.04122 | 35164 ft | 404 kts | 210° |
| 2026-04-24 22:00 | 53.02227 | 3.02021 | 34786 ft | 401 kts | 210° |
| 2026-04-24 22:00 | 52.99739 | 2.99941 | 34412 ft | 399 kts | 210° |
| 2026-04-24 22:01 | 52.97268 | 2.97879 | 34046 ft | 396 kts | 210° |
| 2026-04-24 22:01 | 52.94845 | 2.95770 | 33668 ft | 391 kts | 216° |
| 2026-04-24 22:01 | 52.92682 | 2.93129 | 33358 ft | 382 kts | 225° |
| 2026-04-24 22:01 | 52.90731 | 2.90169 | 33012 ft | 379 kts | 226° |
| 2026-04-24 22:02 | 52.88821 | 2.87247 | 32657 ft | 376 kts | 226° |
| 2026-04-24 22:02 | 52.86904 | 2.84321 | 32305 ft | 374 kts | 226° |
| 2026-04-24 22:02 | 52.84993 | 2.81417 | 31950 ft | 371 kts | 226° |
| 2026-04-24 22:02 | 52.83087 | 2.78537 | 31595 ft | 369 kts | 226° |
| 2026-04-24 22:03 | 52.81194 | 2.75687 | 31246 ft | 366 kts | 225° |
| 2026-04-24 22:03 | 52.79337 | 2.72899 | 30903 ft | 364 kts | 226° |
| 2026-04-24 22:03 | 52.77440 | 2.70057 | 30551 ft | 362 kts | 225° |
| 2026-04-24 22:03 | 52.75606 | 2.67313 | 30214 ft | 359 kts | 226° |
| 2026-04-24 22:04 | 52.73757 | 2.64553 | 29872 ft | 356 kts | 226° |
| 2026-04-24 22:04 | 52.71926 | 2.61819 | 29516 ft | 354 kts | 226° |
| 2026-04-24 22:04 | 52.70105 | 2.59105 | 29164 ft | 351 kts | 226° |
| 2026-04-24 22:04 | 52.68293 | 2.56407 | 28817 ft | 348 kts | 226° |
| 2026-04-24 22:05 | 52.66500 | 2.53743 | 28468 ft | 346 kts | 226° |
| 2026-04-24 22:05 | 52.64743 | 2.51134 | 28126 ft | 343 kts | 226° |
| 2026-04-24 22:05 | 52.62972 | 2.48505 | 27779 ft | 341 kts | 226° |
| 2026-04-24 22:05 | 52.61213 | 2.45900 | 27439 ft | 338 kts | 226° |
| 2026-04-24 22:06 | 52.59468 | 2.43312 | 27097 ft | 336 kts | 226° |
| 2026-04-24 22:06 | 52.57756 | 2.40779 | 26766 ft | 333 kts | 226° |
| 2026-04-24 22:06 | 52.56037 | 2.38239 | 26426 ft | 331 kts | 226° |
| 2026-04-24 22:06 | 52.54329 | 2.35719 | 26096 ft | 329 kts | 226° |
| 2026-04-24 22:07 | 52.52631 | 2.33218 | 25763 ft | 326 kts | 226° |
| 2026-04-24 22:07 | 52.50940 | 2.30732 | 25435 ft | 324 kts | 226° |
| 2026-04-24 22:07 | 52.49259 | 2.28275 | 25108 ft | 322 kts | 225° |
| 2026-04-24 22:07 | 52.47589 | 2.25841 | 24784 ft | 320 kts | 225° |
| 2026-04-24 22:08 | 52.45946 | 2.23448 | 24461 ft | 318 kts | 225° |
| 2026-04-24 22:08 | 52.44292 | 2.21040 | 24136 ft | 315 kts | 225° |
| 2026-04-24 22:08 | 52.42653 | 2.18655 | 23810 ft | 314 kts | 225° |
| 2026-04-24 22:08 | 52.41024 | 2.16286 | 23488 ft | 312 kts | 225° |
| 2026-04-24 22:09 | 52.39425 | 2.13964 | 23164 ft | 310 kts | 225° |
| 2026-04-24 22:09 | 52.37808 | 2.11620 | 22839 ft | 309 kts | 225° |
| 2026-04-24 22:09 | 52.36206 | 2.09298 | 22517 ft | 307 kts | 225° |
| 2026-04-24 22:09 | 52.34766 | 2.06759 | 22154 ft | 302 kts | 242° |
| 2026-04-24 22:10 | 52.33857 | 2.03668 | 21828 ft | 302 kts | 248° |
| 2026-04-24 22:10 | 52.33040 | 2.00478 | 21466 ft | 308 kts | 249° |
| 2026-04-24 22:10 | 52.32209 | 1.97198 | 21099 ft | 315 kts | 249° |
| 2026-04-24 22:10 | 52.31359 | 1.93878 | 20710 ft | 318 kts | 248° |
| 2026-04-24 22:11 | 52.30493 | 1.90534 | 20324 ft | 320 kts | 248° |
| 2026-04-24 22:11 | 52.29619 | 1.87186 | 19931 ft | 320 kts | 248° |
| 2026-04-24 22:11 | 52.28738 | 1.83836 | 19541 ft | 320 kts | 248° |
| 2026-04-24 22:11 | 52.27856 | 1.80499 | 19151 ft | 319 kts | 248° |
| 2026-04-24 22:12 | 52.26981 | 1.77205 | 18771 ft | 319 kts | 248° |
| 2026-04-24 22:12 | 52.26096 | 1.73884 | 18422 ft | 318 kts | 248° |
| 2026-04-24 22:12 | 52.25211 | 1.70574 | 18015 ft | 317 kts | 248° |
| 2026-04-24 22:12 | 52.24329 | 1.67274 | 17630 ft | 318 kts | 248° |
| 2026-04-24 22:13 | 52.23444 | 1.63954 | 17247 ft | 318 kts | 248° |
| 2026-04-24 22:13 | 52.22559 | 1.60643 | 16854 ft | 317 kts | 248° |
| 2026-04-24 22:13 | 52.21687 | 1.57387 | 16481 ft | 317 kts | 248° |
| 2026-04-24 22:13 | 52.20805 | 1.54103 | 16098 ft | 315 kts | 248° |
| 2026-04-24 22:14 | 52.19933 | 1.50857 | 15710 ft | 310 kts | 248° |
| 2026-04-24 22:14 | 52.19074 | 1.47664 | 15338 ft | 304 kts | 248° |
| 2026-04-24 22:14 | 52.18224 | 1.44519 | 14985 ft | 302 kts | 248° |
| 2026-04-24 22:14 | 52.17396 | 1.41441 | 14617 ft | 298 kts | 248° |
| 2026-04-24 22:15 | 52.16565 | 1.38359 | 14264 ft | 295 kts | 248° |
| 2026-04-24 22:15 | 52.15741 | 1.35308 | 13905 ft | 292 kts | 248° |
| 2026-04-24 22:15 | 52.14925 | 1.32286 | 13557 ft | 291 kts | 248° |
| 2026-04-24 22:15 | 52.14106 | 1.29258 | 13220 ft | 292 kts | 248° |
| 2026-04-24 22:16 | 52.13283 | 1.26226 | 12858 ft | 293 kts | 248° |
| 2026-04-24 22:16 | 52.12455 | 1.23184 | 12502 ft | 294 kts | 248° |
| 2026-04-24 22:16 | 52.11664 | 1.20167 | 12206 ft | 291 kts | 252° |
| 2026-04-24 22:16 | 52.11079 | 1.17051 | 11996 ft | 285 kts | 257° |
| 2026-04-24 22:17 | 52.10586 | 1.13953 | 11786 ft | 281 kts | 257° |
| 2026-04-24 22:17 | 52.10107 | 1.10875 | 11586 ft | 280 kts | 257° |
| 2026-04-24 22:17 | 52.09623 | 1.07800 | 11387 ft | 279 kts | 257° |
| 2026-04-24 22:17 | 52.09133 | 1.04746 | 11190 ft | 279 kts | 257° |
| 2026-04-24 22:18 | 52.08637 | 1.01693 | 10986 ft | 279 kts | 256° |
| 2026-04-24 22:18 | 52.08141 | 0.98680 | 10793 ft | 279 kts | 256° |
| 2026-04-24 22:18 | 52.07635 | 0.95629 | 10595 ft | 279 kts | 256° |
| 2026-04-24 22:18 | 52.07125 | 0.92567 | 10392 ft | 279 kts | 256° |
| 2026-04-24 22:19 | 52.06635 | 0.89519 | 9885 ft | 282 kts | 258° |
| 2026-04-24 22:19 | 52.06219 | 0.86428 | 9506 ft | 278 kts | 259° |
| 2026-04-24 22:19 | 52.05824 | 0.83366 | 9222 ft | 273 kts | 259° |
| 2026-04-24 22:19 | 52.05440 | 0.80393 | 8975 ft | 272 kts | 259° |
| 2026-04-24 22:20 | 52.05046 | 0.77376 | 8727 ft | 272 kts | 258° |
| 2026-04-24 22:20 | 52.04647 | 0.74365 | 8487 ft | 272 kts | 258° |
| 2026-04-24 22:20 | 52.04247 | 0.71361 | 8241 ft | 272 kts | 258° |
| 2026-04-24 22:20 | 52.03845 | 0.68360 | 7998 ft | 272 kts | 258° |
| 2026-04-24 22:21 | 52.03442 | 0.65361 | 7756 ft | 271 kts | 258° |
| 2026-04-24 22:21 | 52.03038 | 0.62369 | 7515 ft | 270 kts | 258° |
| 2026-04-24 22:21 | 52.02633 | 0.59379 | 7284 ft | 270 kts | 258° |
| 2026-04-24 22:21 | 52.02236 | 0.56446 | 7045 ft | 269 kts | 258° |
| 2026-04-24 22:22 | 52.01833 | 0.53486 | 6809 ft | 268 kts | 258° |
| 2026-04-24 22:22 | 52.01429 | 0.50529 | 6434 ft | 270 kts | 258° |
| 2026-04-24 22:22 | 52.01022 | 0.47550 | 6147 ft | 267 kts | 258° |
| 2026-04-24 22:22 | 52.00766 | 0.44603 | 6015 ft | 263 kts | 275° |
| 2026-04-24 22:23 | 52.01068 | 0.41715 | 5995 ft | 259 kts | 273° |
| 2026-04-24 22:23 | 52.00850 | 0.38825 | 6014 ft | 259 kts | 260° |
| 2026-04-24 22:23 | 52.00599 | 0.35911 | 6004 ft | 263 kts | 264° |
| 2026-04-24 22:23 | 52.00409 | 0.32937 | 5999 ft | 265 kts | 265° |
| 2026-04-24 22:24 | 52.00244 | 0.29973 | 5986 ft | 264 kts | 265° |
| 2026-04-24 22:24 | 51.99747 | 0.27142 | 5980 ft | 262 kts | 238° |
| 2026-04-24 22:24 | 51.98584 | 0.24942 | 6006 ft | 260 kts | 223° |
| 2026-04-24 22:24 | 51.97257 | 0.22944 | 6005 ft | 261 kts | 222° |
| 2026-04-24 22:25 | 51.95903 | 0.20935 | 5862 ft | 266 kts | 222° |
| 2026-04-24 22:25 | 51.94528 | 0.18879 | 5674 ft | 269 kts | 223° |
| 2026-04-24 22:25 | 51.93161 | 0.16825 | 5482 ft | 266 kts | 223° |
| 2026-04-24 22:25 | 51.91813 | 0.14795 | 5291 ft | 262 kts | 223° |
| 2026-04-24 22:26 | 51.90490 | 0.12796 | 5108 ft | 259 kts | 223° |
| 2026-04-24 22:26 | 51.89185 | 0.10828 | 4937 ft | 259 kts | 223° |
| 2026-04-24 22:26 | 51.87856 | 0.08825 | 4759 ft | 260 kts | 223° |
| 2026-04-24 22:26 | 51.86535 | 0.06834 | 4575 ft | 257 kts | 223° |
| 2026-04-24 22:27 | 51.85239 | 0.04871 | 4390 ft | 253 kts | 223° |
| 2026-04-24 22:27 | 51.83984 | 0.02955 | 4209 ft | 248 kts | 223° |
| 2026-04-24 22:27 | 51.82740 | 0.01056 | 4027 ft | 242 kts | 223° |
| 2026-04-24 22:27 | 51.81542 | -0.00773 | 3855 ft | 233 kts | 223° |
| 2026-04-24 22:28 | 51.80312 | -0.02395 | 3661 ft | 223 kts | 202° |
| 2026-04-24 22:28 | 51.78842 | -0.02713 | 3549 ft | 209 kts | 167° |
| 2026-04-24 22:28 | 51.77946 | -0.02246 | 3476 ft | 201 kts | 152° |
| 2026-04-24 22:28 | 51.76575 | -0.00410 | 3262 ft | 189 kts | 123° |
| 2026-04-24 22:29 | 51.76088 | 0.02921 | 3058 ft | 189 kts | 83° |
| 2026-04-24 22:29 | 51.76464 | 0.04922 | 2936 ft | 185 kts | 63° |
| 2026-04-24 22:29 | 51.77217 | 0.06569 | 2820 ft | 182 kts | 44° |
| 2026-04-24 22:30 | 51.78162 | 0.07953 | 2690 ft | 184 kts | 43° |
| 2026-04-24 22:30 | 51.79106 | 0.09340 | 2564 ft | 183 kts | 44° |
| 2026-04-24 22:30 | 51.80025 | 0.10716 | 2389 ft | 178 kts | 44° |
| 2026-04-24 22:30 | 51.80916 | 0.12059 | 2155 ft | 171 kts | 44° |
| 2026-04-24 22:31 | 51.81756 | 0.13324 | 1964 ft | 157 kts | 44° |
| 2026-04-24 22:31 | 51.82533 | 0.14496 | 1738 ft | 151 kts | 45° |
| 2026-04-24 22:31 | 51.83298 | 0.15648 | 1533 ft | 150 kts | 45° |
| 2026-04-24 22:31 | 51.84062 | 0.16801 | 1340 ft | 150 kts | 45° |
| 2026-04-24 22:32 | 51.84825 | 0.17950 | 1142 ft | 150 kts | 45° |
| 2026-04-24 22:32 | 51.85579 | 0.19079 | 936 ft | 150 kts | 44° |
| 2026-04-24 22:32 | 51.86335 | 0.20213 | 756 ft | 148 kts | 44° |
| 2026-04-24 22:32 | 51.87089 | 0.21355 | 566 ft | 148 kts | 44° |
| 2026-04-24 22:33 | 51.87844 | 0.22490 | 357 ft | 147 kts | 44° |
| 2026-04-24 22:33 | 51.88543 | 0.23544 | 350 ft | 115 kts | 43° |
| 2026-04-24 22:33 | 51.88970 | 0.24187 | 351 ft | 53 kts | 43° |
| 2026-04-24 22:33 | 51.89092 | 0.24368 | 357 ft | 11 kts | 43° |
| 2026-04-24 22:34 | 51.89170 | 0.24485 | 353 ft | 18 kts | 43° |
| 2026-04-24 22:34 | 51.89245 | 0.24624 | 352 ft | 15 kts | 74° |
| 2026-04-24 22:34 | 51.89221 | 0.24771 | 354 ft | 12 kts | 129° |
| 2026-04-24 22:34 | 51.89166 | 0.24867 | 355 ft | 9 kts | 134° |
| 2026-04-24 22:35 | 51.89160 | 0.24952 | 354 ft | 8 kts | 53° |
| 2026-04-24 22:35 | 51.89201 | 0.25016 | 355 ft | 8 kts | 45° |
| 2026-04-24 22:35 | 51.89232 | 0.25091 | 354 ft | 8 kts | 59° |
| 2026-04-24 22:35 | 51.89261 | 0.25168 | 358 ft | 8 kts | 58° |
| 2026-04-24 22:36 | 51.89296 | 0.25229 | 355 ft | 7 kts | 42° |
| 2026-04-24 22:36 | 51.89334 | 0.25285 | 359 ft | 7 kts | 42° |
| 2026-04-24 22:36 | 51.89371 | 0.25339 | 356 ft | 7 kts | 43° |
| 2026-04-24 22:36 | 51.89408 | 0.25394 | 358 ft | 8 kts | 43° |
| 2026-04-24 22:37 | 51.89414 | 0.25483 | 356 ft | 10 kts | 120° |
| 2026-04-24 22:37 | 51.89389 | 0.25585 | 360 ft | 10 kts | 72° |
| 2026-04-24 22:37 | 51.89420 | 0.25645 | 351 ft | 5 kts | 52° |
| 2026-04-24 22:37 | 51.89420 | 0.25702 | 361 ft | 5 kts | 101° |
| 2026-04-24 22:38 | 51.89411 | 0.25753 | 354 ft | 4 kts | 107° |
| 2026-04-24 22:38 | 51.89407 | 0.25774 | 360 ft | 0 kts | 107° |